sensor_id;sensor_type;location;lat;lon;timestamp;P1;durP1;ratioP1;P2;durP2;ratioP2
22131;SDS011;11232;51.748;19.390;2023-06-22T00:00:50;31.13;;;24.15;;
22131;SDS011;11232;51.748;19.390;2023-06-22T00:03:20;30.13;;;22.83;;
22131;SDS011;11232;51.748;19.390;2023-06-22T00:05:47;31.15;;;24.13;;
22131;SDS011;11232;51.748;19.390;2023-06-22T00:08:13;32.90;;;23.63;;
22131;SDS011;11232;51.748;19.390;2023-06-22T00:10:39;30.65;;;23.15;;
22131;SDS011;11232;51.748;19.390;2023-06-22T00:13:05;29.55;;;22.33;;
22131;SDS011;11232;51.748;19.390;2023-06-22T00:15:32;29.58;;;22.05;;
22131;SDS011;11232;51.748;19.390;2023-06-22T00:17:58;30.08;;;22.60;;
22131;SDS011;11232;51.748;19.390;2023-06-22T00:20:25;31.83;;;22.33;;
22131;SDS011;11232;51.748;19.390;2023-06-22T00:22:55;31.77;;;23.70;;
22131;SDS011;11232;51.748;19.390;2023-06-22T00:25:21;30.10;;;22.40;;
22131;SDS011;11232;51.748;19.390;2023-06-22T00:27:47;31.33;;;24.35;;
22131;SDS011;11232;51.748;19.390;2023-06-22T00:30:14;28.83;;;22.33;;
22131;SDS011;11232;51.748;19.390;2023-06-22T00:32:40;33.08;;;23.42;;
22131;SDS011;11232;51.748;19.390;2023-06-22T00:35:07;30.98;;;22.15;;
22131;SDS011;11232;51.748;19.390;2023-06-22T00:37:34;31.80;;;23.65;;
22131;SDS011;11232;51.748;19.390;2023-06-22T00:40:01;33.83;;;23.73;;
22131;SDS011;11232;51.748;19.390;2023-06-22T00:42:27;32.58;;;23.40;;
22131;SDS011;11232;51.748;19.390;2023-06-22T00:44:53;29.10;;;22.70;;
22131;SDS011;11232;51.748;19.390;2023-06-22T00:47:18;33.15;;;23.73;;
22131;SDS011;11232;51.748;19.390;2023-06-22T00:49:45;30.67;;;24.10;;
22131;SDS011;11232;51.748;19.390;2023-06-22T00:52:11;29.02;;;22.45;;
22131;SDS011;11232;51.748;19.390;2023-06-22T00:54:45;32.88;;;23.48;;
22131;SDS011;11232;51.748;19.390;2023-06-22T00:57:13;42.10;;;28.83;;
22131;SDS011;11232;51.748;19.390;2023-06-22T00:59:43;46.58;;;33.75;;
22131;SDS011;11232;51.748;19.390;2023-06-22T01:02:09;35.35;;;25.48;;
22131;SDS011;11232;51.748;19.390;2023-06-22T01:04:36;30.48;;;24.52;;
22131;SDS011;11232;51.748;19.390;2023-06-22T01:07:05;33.67;;;25.75;;
22131;SDS011;11232;51.748;19.390;2023-06-22T01:09:41;34.70;;;24.48;;
22131;SDS011;11232;51.748;19.390;2023-06-22T01:12:09;32.40;;;24.80;;
22131;SDS011;11232;51.748;19.390;2023-06-22T01:14:43;34.85;;;24.92;;
22131;SDS011;11232;51.748;19.390;2023-06-22T01:17:13;32.03;;;25.10;;
22131;SDS011;11232;51.748;19.390;2023-06-22T01:19:45;32.28;;;24.88;;
22131;SDS011;11232;51.748;19.390;2023-06-22T01:22:12;35.17;;;25.25;;
22131;SDS011;11232;51.748;19.390;2023-06-22T01:24:47;38.70;;;27.00;;
22131;SDS011;11232;51.748;19.390;2023-06-22T01:29:51;35.83;;;26.63;;
22131;SDS011;11232;51.748;19.390;2023-06-22T01:32:18;35.83;;;26.50;;
22131;SDS011;11232;51.748;19.390;2023-06-22T01:34:44;36.75;;;26.58;;
22131;SDS011;11232;51.748;19.390;2023-06-22T01:37:12;37.83;;;26.58;;
22131;SDS011;11232;51.748;19.390;2023-06-22T01:39:38;37.30;;;26.55;;
22131;SDS011;11232;51.748;19.390;2023-06-22T01:42:05;38.50;;;25.70;;
22131;SDS011;11232;51.748;19.390;2023-06-22T01:44:31;34.50;;;25.33;;
22131;SDS011;11232;51.748;19.390;2023-06-22T01:46:58;35.05;;;25.40;;
22131;SDS011;11232;51.748;19.390;2023-06-22T01:49:24;40.47;;;26.27;;
22131;SDS011;11232;51.748;19.390;2023-06-22T01:51:50;34.47;;;24.80;;
22131;SDS011;11232;51.748;19.390;2023-06-22T01:54:16;34.45;;;25.75;;
22131;SDS011;11232;51.748;19.390;2023-06-22T01:56:42;38.30;;;25.50;;
22131;SDS011;11232;51.748;19.390;2023-06-22T01:59:14;35.95;;;24.77;;
22131;SDS011;11232;51.748;19.390;2023-06-22T02:01:49;35.00;;;25.35;;
22131;SDS011;11232;51.748;19.390;2023-06-22T02:04:19;35.20;;;26.25;;
22131;SDS011;11232;51.748;19.390;2023-06-22T02:06:47;31.10;;;24.50;;
22131;SDS011;11232;51.748;19.390;2023-06-22T02:09:16;34.63;;;25.35;;
22131;SDS011;11232;51.748;19.390;2023-06-22T02:11:43;35.13;;;23.75;;
22131;SDS011;11232;51.748;19.390;2023-06-22T02:14:10;31.65;;;23.90;;
22131;SDS011;11232;51.748;19.390;2023-06-22T02:16:37;29.77;;;23.17;;
22131;SDS011;11232;51.748;19.390;2023-06-22T02:19:03;31.88;;;23.05;;
22131;SDS011;11232;51.748;19.390;2023-06-22T02:21:31;33.35;;;23.85;;
22131;SDS011;11232;51.748;19.390;2023-06-22T02:23:57;33.80;;;23.58;;
22131;SDS011;11232;51.748;19.390;2023-06-22T02:26:24;33.00;;;23.25;;
22131;SDS011;11232;51.748;19.390;2023-06-22T02:28:50;37.53;;;24.77;;
22131;SDS011;11232;51.748;19.390;2023-06-22T02:31:16;32.55;;;23.25;;
22131;SDS011;11232;51.748;19.390;2023-06-22T02:33:42;31.40;;;22.60;;
22131;SDS011;11232;51.748;19.390;2023-06-22T02:36:09;34.38;;;23.73;;
22131;SDS011;11232;51.748;19.390;2023-06-22T02:38:38;32.85;;;23.73;;
22131;SDS011;11232;51.748;19.390;2023-06-22T02:41:04;31.92;;;23.02;;
22131;SDS011;11232;51.748;19.390;2023-06-22T02:43:31;29.45;;;21.38;;
22131;SDS011;11232;51.748;19.390;2023-06-22T02:45:57;31.65;;;22.40;;
22131;SDS011;11232;51.748;19.390;2023-06-22T02:48:23;29.48;;;22.27;;
22131;SDS011;11232;51.748;19.390;2023-06-22T02:50:49;29.95;;;22.55;;
22131;SDS011;11232;51.748;19.390;2023-06-22T02:53:16;31.52;;;22.45;;
22131;SDS011;11232;51.748;19.390;2023-06-22T02:55:42;30.50;;;21.85;;
22131;SDS011;11232;51.748;19.390;2023-06-22T02:58:08;27.85;;;21.95;;
22131;SDS011;11232;51.748;19.390;2023-06-22T03:00:34;32.45;;;22.30;;
22131;SDS011;11232;51.748;19.390;2023-06-22T03:03:00;33.97;;;23.58;;
22131;SDS011;11232;51.748;19.390;2023-06-22T03:05:26;31.77;;;22.80;;
22131;SDS011;11232;51.748;19.390;2023-06-22T03:07:52;31.77;;;23.60;;
22131;SDS011;11232;51.748;19.390;2023-06-22T03:10:18;30.30;;;23.52;;
22131;SDS011;11232;51.748;19.390;2023-06-22T03:12:44;36.22;;;24.42;;
22131;SDS011;11232;51.748;19.390;2023-06-22T03:15:11;29.48;;;22.08;;
22131;SDS011;11232;51.748;19.390;2023-06-22T03:17:37;31.50;;;23.42;;
22131;SDS011;11232;51.748;19.390;2023-06-22T03:20:04;32.00;;;22.15;;
22131;SDS011;11232;51.748;19.390;2023-06-22T03:22:40;28.38;;;21.35;;
22131;SDS011;11232;51.748;19.390;2023-06-22T03:25:07;33.92;;;22.15;;
22131;SDS011;11232;51.748;19.390;2023-06-22T03:27:38;33.03;;;21.88;;
22131;SDS011;11232;51.748;19.390;2023-06-22T03:30:05;31.98;;;22.05;;
22131;SDS011;11232;51.748;19.390;2023-06-22T03:32:31;27.58;;;21.05;;
22131;SDS011;11232;51.748;19.390;2023-06-22T03:34:57;29.55;;;22.75;;
22131;SDS011;11232;51.748;19.390;2023-06-22T03:37:26;27.83;;;21.08;;
22131;SDS011;11232;51.748;19.390;2023-06-22T03:39:53;29.90;;;21.23;;
22131;SDS011;11232;51.748;19.390;2023-06-22T03:42:19;31.38;;;20.77;;
22131;SDS011;11232;51.748;19.390;2023-06-22T03:44:45;30.35;;;20.42;;
22131;SDS011;11232;51.748;19.390;2023-06-22T03:47:11;28.15;;;20.08;;
22131;SDS011;11232;51.748;19.390;2023-06-22T03:49:38;25.85;;;18.65;;
22131;SDS011;11232;51.748;19.390;2023-06-22T03:52:04;25.00;;;18.45;;
22131;SDS011;11232;51.748;19.390;2023-06-22T03:54:30;27.05;;;19.38;;
22131;SDS011;11232;51.748;19.390;2023-06-22T03:56:57;25.25;;;18.38;;
22131;SDS011;11232;51.748;19.390;2023-06-22T03:59:23;24.90;;;17.67;;
22131;SDS011;11232;51.748;19.390;2023-06-22T04:01:49;25.45;;;18.50;;
22131;SDS011;11232;51.748;19.390;2023-06-22T04:04:15;24.42;;;17.48;;
22131;SDS011;11232;51.748;19.390;2023-06-22T04:06:41;25.02;;;18.45;;
22131;SDS011;11232;51.748;19.390;2023-06-22T04:09:07;22.55;;;17.67;;
22131;SDS011;11232;51.748;19.390;2023-06-22T04:11:33;22.92;;;17.15;;
22131;SDS011;11232;51.748;19.390;2023-06-22T04:13:59;26.05;;;16.90;;
22131;SDS011;11232;51.748;19.390;2023-06-22T04:16:25;21.48;;;16.50;;
22131;SDS011;11232;51.748;19.390;2023-06-22T04:18:51;23.00;;;16.25;;
22131;SDS011;11232;51.748;19.390;2023-06-22T04:21:18;24.75;;;16.85;;
22131;SDS011;11232;51.748;19.390;2023-06-22T04:23:44;23.45;;;15.93;;
22131;SDS011;11232;51.748;19.390;2023-06-22T04:26:11;19.13;;;15.07;;
22131;SDS011;11232;51.748;19.390;2023-06-22T04:28:37;21.75;;;15.43;;
22131;SDS011;11232;51.748;19.390;2023-06-22T04:31:03;20.77;;;14.73;;
22131;SDS011;11232;51.748;19.390;2023-06-22T04:33:29;17.15;;;13.13;;
22131;SDS011;11232;51.748;19.390;2023-06-22T04:35:56;21.70;;;15.23;;
22131;SDS011;11232;51.748;19.390;2023-06-22T04:38:22;18.27;;;13.93;;
22131;SDS011;11232;51.748;19.390;2023-06-22T04:40:48;15.75;;;13.13;;
22131;SDS011;11232;51.748;19.390;2023-06-22T04:43:14;19.60;;;12.48;;
22131;SDS011;11232;51.748;19.390;2023-06-22T04:45:40;17.27;;;12.35;;
22131;SDS011;11232;51.748;19.390;2023-06-22T04:48:06;15.55;;;12.35;;
22131;SDS011;11232;51.748;19.390;2023-06-22T04:50:34;13.32;;;10.95;;
22131;SDS011;11232;51.748;19.390;2023-06-22T04:53:00;19.35;;;11.25;;
22131;SDS011;11232;51.748;19.390;2023-06-22T04:55:30;14.32;;;10.63;;
22131;SDS011;11232;51.748;19.390;2023-06-22T04:57:57;13.68;;;10.20;;
22131;SDS011;11232;51.748;19.390;2023-06-22T05:00:29;13.82;;;10.73;;
22131;SDS011;11232;51.748;19.390;2023-06-22T05:02:55;14.10;;;10.25;;
22131;SDS011;11232;51.748;19.390;2023-06-22T05:05:23;18.85;;;10.52;;
22131;SDS011;11232;51.748;19.390;2023-06-22T05:07:50;38.38;;;26.48;;
22131;SDS011;11232;51.748;19.390;2023-06-22T05:10:18;17.60;;;13.77;;
22131;SDS011;11232;51.748;19.390;2023-06-22T05:12:45;13.40;;;9.07;;
22131;SDS011;11232;51.748;19.390;2023-06-22T05:15:11;10.35;;;8.73;;
22131;SDS011;11232;51.748;19.390;2023-06-22T05:17:38;11.85;;;8.10;;
22131;SDS011;11232;51.748;19.390;2023-06-22T05:20:08;11.15;;;8.48;;
22131;SDS011;11232;51.748;19.390;2023-06-22T05:22:34;11.38;;;8.18;;
22131;SDS011;11232;51.748;19.390;2023-06-22T05:25:00;10.68;;;7.95;;
22131;SDS011;11232;51.748;19.390;2023-06-22T05:27:26;12.73;;;8.38;;
22131;SDS011;11232;51.748;19.390;2023-06-22T05:29:52;12.15;;;8.77;;
22131;SDS011;11232;51.748;19.390;2023-06-22T05:32:18;12.85;;;8.25;;
22131;SDS011;11232;51.748;19.390;2023-06-22T05:34:44;10.75;;;8.38;;
22131;SDS011;11232;51.748;19.390;2023-06-22T05:37:10;12.40;;;8.02;;
22131;SDS011;11232;51.748;19.390;2023-06-22T05:39:37;11.25;;;8.63;;
22131;SDS011;11232;51.748;19.390;2023-06-22T05:42:07;49.55;;;33.05;;
22131;SDS011;11232;51.748;19.390;2023-06-22T05:44:33;26.58;;;17.65;;
22131;SDS011;11232;51.748;19.390;2023-06-22T05:46:59;14.88;;;8.93;;
22131;SDS011;11232;51.748;19.390;2023-06-22T05:49:25;14.25;;;7.93;;
22131;SDS011;11232;51.748;19.390;2023-06-22T05:51:57;10.13;;;8.07;;
22131;SDS011;11232;51.748;19.390;2023-06-22T05:54:23;11.10;;;7.57;;
22131;SDS011;11232;51.748;19.390;2023-06-22T05:56:49;10.27;;;7.88;;
22131;SDS011;11232;51.748;19.390;2023-06-22T05:59:16;12.43;;;7.75;;
22131;SDS011;11232;51.748;19.390;2023-06-22T06:01:42;9.50;;;7.13;;
22131;SDS011;11232;51.748;19.390;2023-06-22T06:04:08;16.92;;;11.98;;
22131;SDS011;11232;51.748;19.390;2023-06-22T06:06:34;21.00;;;16.63;;
22131;SDS011;11232;51.748;19.390;2023-06-22T06:09:02;10.18;;;7.47;;
22131;SDS011;11232;51.748;19.390;2023-06-22T06:11:28;12.13;;;7.30;;
22131;SDS011;11232;51.748;19.390;2023-06-22T06:13:54;8.75;;;6.75;;
22131;SDS011;11232;51.748;19.390;2023-06-22T06:16:20;8.57;;;7.30;;
22131;SDS011;11232;51.748;19.390;2023-06-22T06:18:46;8.30;;;6.22;;
22131;SDS011;11232;51.748;19.390;2023-06-22T06:21:14;7.60;;;6.65;;
22131;SDS011;11232;51.748;19.390;2023-06-22T06:23:40;8.85;;;6.57;;
22131;SDS011;11232;51.748;19.390;2023-06-22T06:26:07;9.93;;;6.03;;
22131;SDS011;11232;51.748;19.390;2023-06-22T06:28:33;14.25;;;6.30;;
22131;SDS011;11232;51.748;19.390;2023-06-22T06:30:59;10.38;;;6.53;;
22131;SDS011;11232;51.748;19.390;2023-06-22T06:33:25;13.90;;;6.13;;
22131;SDS011;11232;51.748;19.390;2023-06-22T06:35:51;7.38;;;5.90;;
22131;SDS011;11232;51.748;19.390;2023-06-22T06:38:17;8.98;;;6.05;;
22131;SDS011;11232;51.748;19.390;2023-06-22T06:40:43;8.57;;;6.85;;
22131;SDS011;11232;51.748;19.390;2023-06-22T06:43:10;7.65;;;6.05;;
22131;SDS011;11232;51.748;19.390;2023-06-22T06:45:36;8.23;;;5.88;;
22131;SDS011;11232;51.748;19.390;2023-06-22T06:48:02;18.45;;;14.73;;
22131;SDS011;11232;51.748;19.390;2023-06-22T06:50:28;11.27;;;7.25;;
22131;SDS011;11232;51.748;19.390;2023-06-22T06:52:54;10.60;;;6.05;;
22131;SDS011;11232;51.748;19.390;2023-06-22T06:55:21;12.45;;;5.78;;
22131;SDS011;11232;51.748;19.390;2023-06-22T06:57:50;7.78;;;5.30;;
22131;SDS011;11232;51.748;19.390;2023-06-22T07:00:17;7.35;;;5.03;;
22131;SDS011;11232;51.748;19.390;2023-06-22T07:02:44;7.20;;;4.55;;
22131;SDS011;11232;51.748;19.390;2023-06-22T07:05:12;9.10;;;5.28;;
22131;SDS011;11232;51.748;19.390;2023-06-22T07:07:38;11.23;;;5.47;;
22131;SDS011;11232;51.748;19.390;2023-06-22T07:10:06;7.07;;;4.72;;
22131;SDS011;11232;51.748;19.390;2023-06-22T07:12:33;7.25;;;5.20;;
22131;SDS011;11232;51.748;19.390;2023-06-22T07:15:06;8.57;;;4.82;;
22131;SDS011;11232;51.748;19.390;2023-06-22T07:17:37;6.88;;;5.25;;
22131;SDS011;11232;51.748;19.390;2023-06-22T07:20:06;6.55;;;4.53;;
22131;SDS011;11232;51.748;19.390;2023-06-22T07:22:37;5.35;;;4.72;;
22131;SDS011;11232;51.748;19.390;2023-06-22T07:25:03;5.60;;;4.50;;
22131;SDS011;11232;51.748;19.390;2023-06-22T07:27:39;8.80;;;4.55;;
22131;SDS011;11232;51.748;19.390;2023-06-22T07:30:10;7.30;;;4.80;;
22131;SDS011;11232;51.748;19.390;2023-06-22T07:32:36;6.93;;;4.60;;
22131;SDS011;11232;51.748;19.390;2023-06-22T07:35:02;9.07;;;4.50;;
22131;SDS011;11232;51.748;19.390;2023-06-22T07:37:29;8.73;;;4.10;;
22131;SDS011;11232;51.748;19.390;2023-06-22T07:39:55;5.32;;;4.15;;
22131;SDS011;11232;51.748;19.390;2023-06-22T07:42:25;8.70;;;4.40;;
22131;SDS011;11232;51.748;19.390;2023-06-22T07:44:51;7.07;;;4.13;;
22131;SDS011;11232;51.748;19.390;2023-06-22T07:47:17;7.85;;;4.30;;
22131;SDS011;11232;51.748;19.390;2023-06-22T07:49:44;6.15;;;4.28;;
22131;SDS011;11232;51.748;19.390;2023-06-22T07:52:10;7.82;;;3.92;;
22131;SDS011;11232;51.748;19.390;2023-06-22T07:54:36;8.55;;;4.57;;
22131;SDS011;11232;51.748;19.390;2023-06-22T07:57:02;8.98;;;3.88;;
22131;SDS011;11232;51.748;19.390;2023-06-22T07:59:28;4.85;;;3.97;;
22131;SDS011;11232;51.748;19.390;2023-06-22T08:01:54;6.90;;;4.28;;
22131;SDS011;11232;51.748;19.390;2023-06-22T08:04:21;15.75;;;7.15;;
22131;SDS011;11232;51.748;19.390;2023-06-22T08:06:47;9.90;;;6.80;;
22131;SDS011;11232;51.748;19.390;2023-06-22T08:09:14;5.30;;;4.30;;
22131;SDS011;11232;51.748;19.390;2023-06-22T08:11:40;5.68;;;4.40;;
22131;SDS011;11232;51.748;19.390;2023-06-22T08:14:06;9.80;;;4.50;;
22131;SDS011;11232;51.748;19.390;2023-06-22T08:16:35;5.93;;;4.18;;
22131;SDS011;11232;51.748;19.390;2023-06-22T08:19:01;7.57;;;4.28;;
22131;SDS011;11232;51.748;19.390;2023-06-22T08:21:27;6.55;;;3.70;;
22131;SDS011;11232;51.748;19.390;2023-06-22T08:23:53;4.85;;;3.97;;
22131;SDS011;11232;51.748;19.390;2023-06-22T08:26:19;8.52;;;4.20;;
22131;SDS011;11232;51.748;19.390;2023-06-22T08:28:45;11.52;;;3.88;;
22131;SDS011;11232;51.748;19.390;2023-06-22T08:31:12;12.38;;;3.80;;
22131;SDS011;11232;51.748;19.390;2023-06-22T08:33:39;3.85;;;3.33;;
22131;SDS011;11232;51.748;19.390;2023-06-22T08:36:05;3.80;;;3.50;;
22131;SDS011;11232;51.748;19.390;2023-06-22T08:38:33;3.65;;;3.35;;
22131;SDS011;11232;51.748;19.390;2023-06-22T08:40:59;5.10;;;3.30;;
22131;SDS011;11232;51.748;19.390;2023-06-22T08:43:25;4.30;;;3.10;;
22131;SDS011;11232;51.748;19.390;2023-06-22T08:45:51;3.40;;;3.10;;
22131;SDS011;11232;51.748;19.390;2023-06-22T08:48:19;5.68;;;3.17;;
22131;SDS011;11232;51.748;19.390;2023-06-22T08:50:45;3.08;;;2.78;;
22131;SDS011;11232;51.748;19.390;2023-06-22T08:53:11;6.40;;;2.72;;
22131;SDS011;11232;51.748;19.390;2023-06-22T08:55:37;2.92;;;2.72;;
22131;SDS011;11232;51.748;19.390;2023-06-22T08:58:03;2.72;;;2.50;;
22131;SDS011;11232;51.748;19.390;2023-06-22T09:00:29;3.95;;;2.40;;
22131;SDS011;11232;51.748;19.390;2023-06-22T09:02:57;5.47;;;2.50;;
22131;SDS011;11232;51.748;19.390;2023-06-22T09:05:24;3.67;;;2.60;;
22131;SDS011;11232;51.748;19.390;2023-06-22T09:07:53;40.85;;;4.50;;
22131;SDS011;11232;51.748;19.390;2023-06-22T09:10:23;2.97;;;2.78;;
22131;SDS011;11232;51.748;19.390;2023-06-22T09:12:49;7.00;;;4.10;;
22131;SDS011;11232;51.748;19.390;2023-06-22T09:15:15;12.30;;;3.53;;
22131;SDS011;11232;51.748;19.390;2023-06-22T09:17:42;4.47;;;2.53;;
22131;SDS011;11232;51.748;19.390;2023-06-22T09:20:08;4.63;;;2.53;;
22131;SDS011;11232;51.748;19.390;2023-06-22T09:22:36;2.78;;;2.58;;
22131;SDS011;11232;51.748;19.390;2023-06-22T09:25:02;3.97;;;2.72;;
22131;SDS011;11232;51.748;19.390;2023-06-22T09:27:28;2.80;;;2.50;;
22131;SDS011;11232;51.748;19.390;2023-06-22T09:29:54;5.97;;;2.28;;
22131;SDS011;11232;51.748;19.390;2023-06-22T09:32:23;10.70;;;2.50;;
22131;SDS011;11232;51.748;19.390;2023-06-22T09:34:49;2.63;;;2.42;;
22131;SDS011;11232;51.748;19.390;2023-06-22T09:37:15;2.50;;;2.30;;
22131;SDS011;11232;51.748;19.390;2023-06-22T09:39:41;2.58;;;2.38;;
22131;SDS011;11232;51.748;19.390;2023-06-22T09:42:07;4.10;;;2.95;;
22131;SDS011;11232;51.748;19.390;2023-06-22T09:44:33;2.63;;;2.40;;
22131;SDS011;11232;51.748;19.390;2023-06-22T09:46:59;5.38;;;2.85;;
22131;SDS011;11232;51.748;19.390;2023-06-22T09:49:25;2.65;;;2.42;;
22131;SDS011;11232;51.748;19.390;2023-06-22T09:51:51;2.78;;;2.58;;
22131;SDS011;11232;51.748;19.390;2023-06-22T09:54:17;3.58;;;2.60;;
22131;SDS011;11232;51.748;19.390;2023-06-22T09:56:43;5.68;;;2.72;;
22131;SDS011;11232;51.748;19.390;2023-06-22T09:59:09;5.28;;;2.60;;
22131;SDS011;11232;51.748;19.390;2023-06-22T10:01:35;3.47;;;2.65;;
22131;SDS011;11232;51.748;19.390;2023-06-22T10:04:02;2.47;;;2.28;;
22131;SDS011;11232;51.748;19.390;2023-06-22T10:06:28;11.27;;;2.55;;
22131;SDS011;11232;51.748;19.390;2023-06-22T10:08:54;3.08;;;2.20;;
22131;SDS011;11232;51.748;19.390;2023-06-22T10:11:20;2.53;;;2.33;;
22131;SDS011;11232;51.748;19.390;2023-06-22T10:13:51;2.50;;;2.30;;
22131;SDS011;11232;51.748;19.390;2023-06-22T10:16:17;4.10;;;2.30;;
22131;SDS011;11232;51.748;19.390;2023-06-22T10:18:43;2.53;;;2.33;;
22131;SDS011;11232;51.748;19.390;2023-06-22T10:21:09;6.30;;;2.80;;
22131;SDS011;11232;51.748;19.390;2023-06-22T10:23:35;2.90;;;2.60;;
22131;SDS011;11232;51.748;19.390;2023-06-22T10:26:01;5.57;;;2.92;;
22131;SDS011;11232;51.748;19.390;2023-06-22T10:28:27;4.50;;;2.67;;
22131;SDS011;11232;51.748;19.390;2023-06-22T10:30:53;2.60;;;2.40;;
22131;SDS011;11232;51.748;19.390;2023-06-22T10:33:19;3.90;;;2.65;;
22131;SDS011;11232;51.748;19.390;2023-06-22T10:35:45;2.85;;;2.40;;
22131;SDS011;11232;51.748;19.390;2023-06-22T10:38:11;3.28;;;2.50;;
22131;SDS011;11232;51.748;19.390;2023-06-22T10:40:37;3.53;;;2.42;;
22131;SDS011;11232;51.748;19.390;2023-06-22T10:43:04;4.65;;;4.18;;
22131;SDS011;11232;51.748;19.390;2023-06-22T10:45:30;5.93;;;5.38;;
22131;SDS011;11232;51.748;19.390;2023-06-22T10:47:56;3.35;;;2.80;;
22131;SDS011;11232;51.748;19.390;2023-06-22T10:50:22;5.13;;;3.03;;
22131;SDS011;11232;51.748;19.390;2023-06-22T10:52:51;3.03;;;2.78;;
22131;SDS011;11232;51.748;19.390;2023-06-22T10:55:17;3.35;;;2.90;;
22131;SDS011;11232;51.748;19.390;2023-06-22T10:57:43;4.05;;;2.70;;
22131;SDS011;11232;51.748;19.390;2023-06-22T11:00:12;4.90;;;2.67;;
22131;SDS011;11232;51.748;19.390;2023-06-22T11:02:38;2.55;;;2.20;;
22131;SDS011;11232;51.748;19.390;2023-06-22T11:05:04;5.05;;;2.78;;
22131;SDS011;11232;51.748;19.390;2023-06-22T11:07:30;2.40;;;2.20;;
22131;SDS011;11232;51.748;19.390;2023-06-22T11:09:56;2.55;;;2.33;;
22131;SDS011;11232;51.748;19.390;2023-06-22T11:12:22;3.42;;;2.50;;
22131;SDS011;11232;51.748;19.390;2023-06-22T11:14:48;5.53;;;2.83;;
22131;SDS011;11232;51.748;19.390;2023-06-22T11:17:16;5.55;;;2.30;;
22131;SDS011;11232;51.748;19.390;2023-06-22T11:19:42;13.85;;;11.23;;
22131;SDS011;11232;51.748;19.390;2023-06-22T11:22:08;4.30;;;3.00;;
22131;SDS011;11232;51.748;19.390;2023-06-22T11:24:34;3.13;;;2.83;;
22131;SDS011;11232;51.748;19.390;2023-06-22T11:27:00;5.07;;;2.65;;
22131;SDS011;11232;51.748;19.390;2023-06-22T11:29:26;2.97;;;2.67;;
22131;SDS011;11232;51.748;19.390;2023-06-22T11:31:52;2.50;;;2.30;;
22131;SDS011;11232;51.748;19.390;2023-06-22T11:34:18;2.28;;;2.03;;
22131;SDS011;11232;51.748;19.390;2023-06-22T11:36:44;2.78;;;2.58;;
22131;SDS011;11232;51.748;19.390;2023-06-22T11:39:10;2.80;;;2.47;;
22131;SDS011;11232;51.748;19.390;2023-06-22T11:41:39;3.70;;;2.65;;
22131;SDS011;11232;51.748;19.390;2023-06-22T11:44:05;3.33;;;2.70;;
22131;SDS011;11232;51.748;19.390;2023-06-22T11:46:31;2.90;;;2.60;;
22131;SDS011;11232;51.748;19.390;2023-06-22T11:48:58;5.30;;;2.63;;
22131;SDS011;11232;51.748;19.390;2023-06-22T11:51:24;3.75;;;2.60;;
22131;SDS011;11232;51.748;19.390;2023-06-22T11:53:50;6.40;;;2.95;;
22131;SDS011;11232;51.748;19.390;2023-06-22T11:56:16;3.83;;;2.55;;
22131;SDS011;11232;51.748;19.390;2023-06-22T11:58:42;5.70;;;2.90;;
22131;SDS011;11232;51.748;19.390;2023-06-22T12:01:08;8.65;;;3.17;;
22131;SDS011;11232;51.748;19.390;2023-06-22T12:03:34;4.28;;;3.13;;
22131;SDS011;11232;51.748;19.390;2023-06-22T12:06:00;4.25;;;3.13;;
22131;SDS011;11232;51.748;19.390;2023-06-22T12:08:26;5.55;;;2.80;;
22131;SDS011;11232;51.748;19.390;2023-06-22T12:10:52;5.47;;;2.63;;
22131;SDS011;11232;51.748;19.390;2023-06-22T12:13:19;4.22;;;2.85;;
22131;SDS011;11232;51.748;19.390;2023-06-22T12:15:45;3.00;;;2.70;;
22131;SDS011;11232;51.748;19.390;2023-06-22T12:18:11;3.30;;;2.60;;
22131;SDS011;11232;51.748;19.390;2023-06-22T12:20:39;2.63;;;2.42;;
22131;SDS011;11232;51.748;19.390;2023-06-22T12:23:05;3.92;;;2.47;;
22131;SDS011;11232;51.748;19.390;2023-06-22T12:25:31;3.13;;;2.40;;
22131;SDS011;11232;51.748;19.390;2023-06-22T12:27:57;3.85;;;2.85;;
22131;SDS011;11232;51.748;19.390;2023-06-22T12:30:23;2.70;;;2.38;;
22131;SDS011;11232;51.748;19.390;2023-06-22T12:32:49;5.72;;;2.38;;
22131;SDS011;11232;51.748;19.390;2023-06-22T12:35:16;2.63;;;2.25;;
22131;SDS011;11232;51.748;19.390;2023-06-22T12:37:42;2.40;;;2.20;;
22131;SDS011;11232;51.748;19.390;2023-06-22T12:40:08;5.05;;;2.50;;
22131;SDS011;11232;51.748;19.390;2023-06-22T12:42:34;4.20;;;3.10;;
22131;SDS011;11232;51.748;19.390;2023-06-22T12:45:01;3.85;;;2.40;;
22131;SDS011;11232;51.748;19.390;2023-06-22T12:47:27;3.28;;;2.35;;
22131;SDS011;11232;51.748;19.390;2023-06-22T12:49:53;4.70;;;2.58;;
22131;SDS011;11232;51.748;19.390;2023-06-22T12:52:19;3.17;;;2.72;;
22131;SDS011;11232;51.748;19.390;2023-06-22T12:54:45;6.13;;;2.65;;
22131;SDS011;11232;51.748;19.390;2023-06-22T12:57:10;2.63;;;2.42;;
22131;SDS011;11232;51.748;19.390;2023-06-22T12:59:37;4.70;;;2.75;;
22131;SDS011;11232;51.748;19.390;2023-06-22T13:02:03;2.38;;;2.17;;
22131;SDS011;11232;51.748;19.390;2023-06-22T13:04:29;2.50;;;2.30;;
22131;SDS011;11232;51.748;19.390;2023-06-22T13:06:55;3.10;;;2.60;;
22131;SDS011;11232;51.748;19.390;2023-06-22T13:09:21;3.30;;;2.95;;
22131;SDS011;11232;51.748;19.390;2023-06-22T13:11:47;4.15;;;2.55;;
22131;SDS011;11232;51.748;19.390;2023-06-22T13:14:13;21.88;;;17.38;;
22131;SDS011;11232;51.748;19.390;2023-06-22T13:16:41;3.67;;;3.05;;
22131;SDS011;11232;51.748;19.390;2023-06-22T13:19:07;4.35;;;2.80;;
22131;SDS011;11232;51.748;19.390;2023-06-22T13:21:33;4.32;;;2.85;;
22131;SDS011;11232;51.748;19.390;2023-06-22T13:23:59;4.20;;;2.60;;
22131;SDS011;11232;51.748;19.390;2023-06-22T13:26:26;2.58;;;2.38;;
22131;SDS011;11232;51.748;19.390;2023-06-22T13:28:53;6.32;;;2.95;;
22131;SDS011;11232;51.748;19.390;2023-06-22T13:31:19;3.25;;;2.88;;
22131;SDS011;11232;51.748;19.390;2023-06-22T13:33:46;3.42;;;2.80;;
22131;SDS011;11232;51.748;19.390;2023-06-22T13:36:13;3.10;;;2.78;;
22131;SDS011;11232;51.748;19.390;2023-06-22T13:38:39;6.63;;;2.72;;
22131;SDS011;11232;51.748;19.390;2023-06-22T13:41:06;4.72;;;2.72;;
22131;SDS011;11232;51.748;19.390;2023-06-22T13:43:31;3.90;;;2.67;;
22131;SDS011;11232;51.748;19.390;2023-06-22T13:45:58;4.60;;;2.88;;
22131;SDS011;11232;51.748;19.390;2023-06-22T13:48:24;8.88;;;2.85;;
22131;SDS011;11232;51.748;19.390;2023-06-22T13:50:51;5.53;;;2.88;;
22131;SDS011;11232;51.748;19.390;2023-06-22T13:53:17;3.63;;;3.00;;
22131;SDS011;11232;51.748;19.390;2023-06-22T13:55:43;3.17;;;2.88;;
22131;SDS011;11232;51.748;19.390;2023-06-22T13:58:09;3.53;;;3.17;;
22131;SDS011;11232;51.748;19.390;2023-06-22T14:00:35;2.65;;;2.40;;
22131;SDS011;11232;51.748;19.390;2023-06-22T14:03:01;5.90;;;2.90;;
22131;SDS011;11232;51.748;19.390;2023-06-22T14:05:27;3.05;;;2.75;;
22131;SDS011;11232;51.748;19.390;2023-06-22T14:07:52;3.00;;;2.70;;
22131;SDS011;11232;51.748;19.390;2023-06-22T14:10:18;5.28;;;2.53;;
22131;SDS011;11232;51.748;19.390;2023-06-22T14:12:45;3.63;;;3.05;;
22131;SDS011;11232;51.748;19.390;2023-06-22T14:15:11;5.22;;;3.22;;
22131;SDS011;11232;51.748;19.390;2023-06-22T14:17:37;3.10;;;2.80;;
22131;SDS011;11232;51.748;19.390;2023-06-22T14:20:03;2.95;;;2.70;;
22131;SDS011;11232;51.748;19.390;2023-06-22T14:22:30;3.33;;;2.85;;